Terminal Aerodrome Forecast
Issued by NWS

Home | Current Version | Previous Version | Graphics & Text | Print | Product List | Glossary On
Versions: 1 2 3 4 5 6 7 8 9 10 11 12 13 14 15 16 17 18 19 20 21 22 23 24
525
FTUS43 KABR 111126
TAFMBG
TAF
KMBG 111126Z 1112/1212 12007KT P6SM -SN OVC015
     FM111400 13007KT 2SM -SN OVC007
     FM120200 36009KT P6SM OVC015
     FM120900 35009KT P6SM OVC050=

USA.gov is the U.S. government's official web portal to all federal, state and local government web resources and services.